Time,TemperatureF,DewpointF,PressureIn,WindDirection,WindDirectionDegrees,WindSpeedMPH,WindSpeedGustMPH,Humidity,HourlyPrecipIn,Conditions,Clouds,dailyrainin,SoftwareType,DateUTC
2014-01-03 00:05:00,13.5,13.0,29.47,ESE,112,4.7,-999.0,98,-99.99,,,0.00,Acu-Link.com,2014-01-03 05:05:00,
2014-01-03 00:21:00,13.5,13.0,29.47,ESE,112,4.7,-999.0,98,-99.99,,,0.00,Acu-Link.com,2014-01-03 05:21:00,
2014-01-03 00:36:00,13.8,13.6,29.46,NE,45,2.2,-999.0,99,-99.99,,,0.00,Acu-Link.com,2014-01-03 05:36:00,
2014-01-03 00:51:00,13.8,13.6,29.47,NE,45,0.0,-999.0,99,-99.99,,,0.00,Acu-Link.com,2014-01-03 05:51:00,
2014-01-03 01:06:00,14.0,13.8,29.47,NNE,22,0.0,-999.0,99,-99.99,,,0.00,Acu-Link.com,2014-01-03 06:06:00,
2014-01-03 01:22:00,14.2,14.0,29.46,East,90,0.0,-999.0,99,-99.99,,,0.00,Acu-Link.com,2014-01-03 06:22:00,
2014-01-03 01:37:00,14.4,14.1,29.47,ESE,112,0.0,-999.0,99,-99.99,,,0.00,Acu-Link.com,2014-01-03 06:37:00,
2014-01-03 01:52:00,14.2,14.0,29.45,ENE,67,0.0,-999.0,99,-99.99,,,0.00,Acu-Link.com,2014-01-03 06:52:00,
2014-01-03 02:08:00,14.0,13.8,29.49,NNE,22,0.0,-999.0,99,-99.99,,,0.00,Acu-Link.com,2014-01-03 07:08:00,
2014-01-03 02:23:00,13.8,13.6,29.47,NE,45,0.0,-999.0,99,-99.99,,,0.00,Acu-Link.com,2014-01-03 07:23:00,
2014-01-03 02:38:00,13.8,13.6,29.49,NNE,22,0.0,-999.0,99,-99.99,,,0.00,Acu-Link.com,2014-01-03 07:38:00,
2014-01-03 02:54:00,14.0,13.8,29.50,East,90,0.0,-999.0,99,-99.99,,,0.00,Acu-Link.com,2014-01-03 07:54:00,
2014-01-03 03:09:00,14.2,14.0,29.51,NW,315,0.0,-999.0,99,-99.99,,,0.00,Acu-Link.com,2014-01-03 08:09:00,
2014-01-03 03:24:00,14.4,14.1,29.51,NNW,337,0.0,-999.0,99,-99.99,,,0.00,Acu-Link.com,2014-01-03 08:24:00,
2014-01-03 03:39:00,14.5,14.3,29.52,North,0,0.0,-999.0,99,-99.99,,,0.00,Acu-Link.com,2014-01-03 08:39:00,
2014-01-03 03:55:00,14.5,14.3,29.52,NE,45,0.0,-999.0,99,-99.99,,,0.00,Acu-Link.com,2014-01-03 08:55:00,
2014-01-03 04:10:00,14.4,14.1,29.53,NW,315,0.0,-999.0,99,-99.99,,,0.00,Acu-Link.com,2014-01-03 09:10:00,
2014-01-03 04:25:00,13.8,13.4,29.53,NNW,337,0.0,-999.0,98,-99.99,,,0.00,Acu-Link.com,2014-01-03 09:25:00,
2014-01-03 04:40:00,13.6,13.2,29.54,North,0,0.0,-999.0,98,-99.99,,,0.00,Acu-Link.com,2014-01-03 09:40:00,
2014-01-03 04:56:00,12.9,12.5,29.56,WNW,292,5.8,-999.0,98,-99.99,,,0.00,Acu-Link.com,2014-01-03 09:56:00,
2014-01-03 05:11:00,12.4,11.7,29.57,NNW,337,4.3,-999.0,97,-99.99,,,0.00,Acu-Link.com,2014-01-03 10:11:00,
2014-01-03 05:26:00,12.2,11.5,29.58,WNW,292,7.4,-999.0,97,-99.99,,,0.00,Acu-Link.com,2014-01-03 10:26:00,
2014-01-03 05:42:00,12.0,11.3,29.59,NNW,337,4.3,-999.0,97,-99.99,,,0.00,Acu-Link.com,2014-01-03 10:42:00,
2014-01-03 05:57:00,11.8,11.2,29.61,NNW,337,5.1,-999.0,97,-99.99,,,0.00,Acu-Link.com,2014-01-03 10:57:00,
2014-01-03 06:12:00,11.7,10.7,29.62,WNW,292,5.1,-999.0,96,-99.99,,,0.00,Acu-Link.com,2014-01-03 11:12:00,
2014-01-03 06:27:00,11.3,10.4,29.64,NW,315,8.3,-999.0,96,-99.99,,,0.00,Acu-Link.com,2014-01-03 11:27:00,
2014-01-03 06:43:00,10.9,10.0,29.66,NW,315,6.3,-999.0,96,-99.99,,,0.00,Acu-Link.com,2014-01-03 11:43:00,
2014-01-03 06:58:00,10.6,9.4,29.68,WNW,292,8.3,-999.0,95,-99.99,,,0.00,Acu-Link.com,2014-01-03 11:58:00,
2014-01-03 07:13:00,10.2,8.6,29.69,NW,315,6.3,-999.0,93,-99.99,,,0.00,Acu-Link.com,2014-01-03 12:13:00,
2014-01-03 07:29:00,9.9,8.2,29.71,West,270,9.4,-999.0,93,-99.99,,,0.00,Acu-Link.com,2014-01-03 12:29:00,
2014-01-03 07:44:00,9.9,8.2,29.74,West,270,7.4,-999.0,93,-99.99,,,0.00,Acu-Link.com,2014-01-03 12:44:00,
2014-01-03 07:59:00,10.0,8.4,29.76,WSW,247,4.3,-999.0,93,-99.99,,,0.00,Acu-Link.com,2014-01-03 12:59:00,
2014-01-03 08:15:00,9.3,7.5,29.77,North,0,4.7,-999.0,92,-99.99,,,0.00,Acu-Link.com,2014-01-03 13:15:00,
2014-01-03 08:30:00,9.1,6.8,29.79,West,270,5.8,-999.0,90,-99.99,,,0.00,Acu-Link.com,2014-01-03 13:30:00,
2014-01-03 08:45:00,9.1,6.6,29.81,NNW,337,6.7,-999.0,89,-99.99,,,0.00,Acu-Link.com,2014-01-03 13:45:00,
2014-01-03 09:00:00,10.4,7.6,29.83,NW,315,9.4,-999.0,88,-99.99,,,0.00,Acu-Link.com,2014-01-03 14:00:00,
2014-01-03 09:15:00,10.2,7.1,29.83,North,0,6.7,-999.0,87,-99.99,,,0.00,Acu-Link.com,2014-01-03 14:15:00,
2014-01-03 09:31:00,9.5,5.9,29.84,WNW,292,10.3,-999.0,85,-99.99,,,0.00,Acu-Link.com,2014-01-03 14:31:00,
2014-01-03 09:46:00,10.2,6.6,29.85,WNW,292,6.7,-999.0,85,-99.99,,,0.00,Acu-Link.com,2014-01-03 14:46:00,
2014-01-03 10:01:00,10.6,6.7,29.87,SSW,202,9.4,-999.0,84,-99.99,,,0.00,Acu-Link.com,2014-01-03 15:01:00,
2014-01-03 10:17:00,10.6,6.7,29.87,SSW,202,9.4,-999.0,84,-99.99,,,0.00,Acu-Link.com,2014-01-03 15:17:00,
2014-01-03 10:32:00,10.6,6.7,29.88,SSW,202,9.4,-999.0,84,-99.99,,,0.00,Acu-Link.com,2014-01-03 15:32:00,
2014-01-03 10:47:00,14.0,9.0,29.89,NNW,337,4.3,-999.0,80,-99.99,,,0.00,Acu-Link.com,2014-01-03 15:47:00,
2014-01-03 11:02:00,16.2,10.5,29.90,NNW,337,3.8,-999.0,78,-99.99,,,0.00,Acu-Link.com,2014-01-03 16:02:00,
2014-01-03 11:18:00,16.2,10.5,29.91,WNW,292,3.8,-999.0,78,-99.99,,,0.00,Acu-Link.com,2014-01-03 16:18:00,
2014-01-03 11:33:00,14.5,8.7,29.91,WNW,292,7.8,-999.0,77,-99.99,,,0.00,Acu-Link.com,2014-01-03 16:33:00,
2014-01-03 11:48:00,14.5,8.7,29.91,WNW,292,7.8,-999.0,77,-99.99,,,0.00,Acu-Link.com,2014-01-03 16:48:00,
2014-01-03 12:03:00,14.5,8.7,29.92,WNW,292,7.8,-999.0,77,-99.99,,,0.00,Acu-Link.com,2014-01-03 17:03:00,
2014-01-03 12:18:00,14.5,8.7,29.94,WNW,292,7.8,-999.0,77,-99.99,,,0.00,Acu-Link.com,2014-01-03 17:18:00,
2014-01-03 12:34:00,14.5,8.4,29.94,WNW,292,6.7,-999.0,76,-99.99,,,0.00,Acu-Link.com,2014-01-03 17:34:00,
2014-01-03 12:49:00,14.5,7.5,29.95,WNW,292,5.1,-999.0,73,-99.99,,,0.00,Acu-Link.com,2014-01-03 17:49:00,
2014-01-03 13:04:00,14.5,8.1,29.96,WNW,292,4.3,-999.0,75,-99.99,,,0.00,Acu-Link.com,2014-01-03 18:04:00,
2014-01-03 13:19:00,13.6,6.3,29.97,WNW,292,5.8,-999.0,72,-99.99,,,0.00,Acu-Link.com,2014-01-03 18:19:00,
2014-01-03 13:35:00,14.7,6.7,29.97,West,270,5.8,-999.0,70,-99.99,,,0.00,Acu-Link.com,2014-01-03 18:35:00,
2014-01-03 13:50:00,14.0,6.4,29.97,WSW,247,8.3,-999.0,71,-99.99,,,0.00,Acu-Link.com,2014-01-03 18:50:00,
2014-01-03 14:05:00,14.0,5.7,29.98,West,270,9.4,-999.0,69,-99.99,,,0.00,Acu-Link.com,2014-01-03 19:05:00,
2014-01-03 14:20:00,14.2,5.6,29.98,NW,315,8.3,-999.0,68,-99.99,,,0.00,Acu-Link.com,2014-01-03 19:20:00,
2014-01-03 14:35:00,15.1,5.5,29.99,SSE,157,7.4,-999.0,65,-99.99,,,0.00,Acu-Link.com,2014-01-03 19:35:00,
2014-01-03 14:51:00,16.0,5.3,30.00,NNW,337,6.7,-999.0,62,-99.99,,,0.00,Acu-Link.com,2014-01-03 19:51:00,
2014-01-03 15:06:00,15.8,5.1,30.01,WNW,292,5.8,-999.0,62,-99.99,,,0.00,Acu-Link.com,2014-01-03 20:06:00,
2014-01-03 15:21:00,14.7,4.1,30.02,North,0,6.7,-999.0,62,-99.99,,,0.00,Acu-Link.com,2014-01-03 20:21:00,
2014-01-03 15:36:00,15.1,4.1,30.03,North,0,5.1,-999.0,61,-99.99,,,0.00,Acu-Link.com,2014-01-03 20:36:00,
2014-01-03 15:51:00,14.7,3.7,30.05,North,0,4.3,-999.0,61,-99.99,,,0.00,Acu-Link.com,2014-01-03 20:51:00,
2014-01-03 16:07:00,14.0,3.8,30.06,West,270,3.8,-999.0,63,-99.99,,,0.00,Acu-Link.com,2014-01-03 21:07:00,
2014-01-03 16:22:00,11.8,2.0,30.07,NW,315,2.7,-999.0,64,-99.99,,,0.00,Acu-Link.com,2014-01-03 21:22:00,
2014-01-03 16:37:00,11.5,1.7,30.08,WNW,292,4.3,-999.0,64,-99.99,,,0.00,Acu-Link.com,2014-01-03 21:37:00,
2014-01-03 16:53:00,10.6,1.2,30.09,NW,315,2.2,-999.0,65,-99.99,,,0.00,Acu-Link.com,2014-01-03 21:53:00,
2014-01-03 17:08:00,9.5,0.8,30.11,North,0,2.7,-999.0,67,-99.99,,,0.00,Acu-Link.com,2014-01-03 22:08:00,
2014-01-03 17:23:00,9.5,0.8,30.11,North,0,2.2,-999.0,67,-99.99,,,0.00,Acu-Link.com,2014-01-03 22:23:00,
2014-01-03 17:38:00,9.5,0.8,30.13,North,0,2.2,-999.0,67,-99.99,,,0.00,Acu-Link.com,2014-01-03 22:38:00,
2014-01-03 17:54:00,9.5,0.8,30.14,North,0,2.2,-999.0,67,-99.99,,,0.00,Acu-Link.com,2014-01-03 22:54:00,
2014-01-03 18:09:00,9.5,0.8,30.16,North,0,2.2,-999.0,67,-99.99,,,0.00,Acu-Link.com,2014-01-03 23:09:00,
2014-01-03 18:24:00,9.5,0.8,30.17,North,0,2.2,-999.0,67,-99.99,,,0.00,Acu-Link.com,2014-01-03 23:24:00,
2014-01-03 18:39:00,9.5,0.8,30.18,North,0,2.2,-999.0,67,-99.99,,,0.00,Acu-Link.com,2014-01-03 23:39:00,
2014-01-03 18:55:00,9.5,0.8,30.19,North,0,2.2,-999.0,67,-99.99,,,0.00,Acu-Link.com,2014-01-03 23:55:00,
2014-01-03 19:10:00,9.5,0.8,30.20,North,0,2.2,-999.0,67,-99.99,,,0.00,Acu-Link.com,2014-01-04 00:10:00,
2014-01-03 19:25:00,9.5,0.8,30.20,North,0,2.2,-999.0,67,-99.99,,,0.00,Acu-Link.com,2014-01-04 00:25:00,
2014-01-03 19:40:00,9.5,0.8,30.21,North,0,2.2,-999.0,67,-99.99,,,0.00,Acu-Link.com,2014-01-04 00:40:00,
2014-01-03 19:55:00,9.5,0.8,30.23,North,0,2.2,-999.0,67,-99.99,,,0.00,Acu-Link.com,2014-01-04 00:55:00,
2014-01-03 20:18:00,4.1,-1.2,30.23,North,0,0.0,-999.0,78,-99.99,,,0.00,Acu-Link.com,2014-01-04 01:18:00,
2014-01-03 20:33:00,4.1,-1.5,30.23,ESE,112,3.1,-999.0,77,-99.99,,,0.00,Acu-Link.com,2014-01-04 01:33:00,
2014-01-03 20:49:00,3.4,-1.9,30.23,WNW,292,1.6,-999.0,78,-99.99,,,0.00,Acu-Link.com,2014-01-04 01:49:00,
2014-01-03 21:04:00,2.8,-1.6,30.23,WSW,247,0.0,-999.0,81,-99.99,,,0.00,Acu-Link.com,2014-01-04 02:04:00,
2014-01-03 21:19:00,2.8,-1.6,30.24,WNW,292,2.7,-999.0,81,-99.99,,,0.00,Acu-Link.com,2014-01-04 02:19:00,
2014-01-03 21:35:00,4.3,-1.6,30.24,SW,225,0.0,-999.0,76,-99.99,,,0.00,Acu-Link.com,2014-01-04 02:35:00,
2014-01-03 21:50:00,2.8,-1.6,30.24,East,90,1.1,-999.0,81,-99.99,,,0.00,Acu-Link.com,2014-01-04 02:50:00,
2014-01-03 22:05:00,1.6,-2.6,30.23,WNW,292,0.0,-999.0,82,-99.99,,,0.00,Acu-Link.com,2014-01-04 03:05:00,
2014-01-03 22:21:00,2.1,-2.3,30.23,SE,135,1.6,-999.0,81,-99.99,,,0.00,Acu-Link.com,2014-01-04 03:21:00,
2014-01-03 22:36:00,1.2,-2.2,30.23,NNW,337,2.2,-999.0,85,-99.99,,,0.00,Acu-Link.com,2014-01-04 03:36:00,
2014-01-03 22:51:00,0.5,-2.9,30.24,West,270,2.2,-999.0,85,-99.99,,,0.00,Acu-Link.com,2014-01-04 03:51:00,
2014-01-03 23:06:00,1.0,-1.9,30.23,South,180,2.2,-999.0,87,-99.99,,,0.00,Acu-Link.com,2014-01-04 04:06:00,
2014-01-03 23:21:00,0.0,-2.7,30.23,West,270,1.6,-999.0,88,-99.99,,,0.00,Acu-Link.com,2014-01-04 04:21:00,
2014-01-03 23:45:00,0.1,-3.0,30.23,SSW,202,0.0,-999.0,86,-99.99,,,0.00,Acu-Link.com,2014-01-04 04:45:00,